sensor_id;sensor_type;location;lat;lon;timestamp;pressure;altitude;pressure_sealevel;temperature;humidity
59419;BME280;45224;50.904;6.038;2022-11-28T00:00:50;99274.47;;;8.53;91.27
59419;BME280;45224;50.904;6.038;2022-11-28T00:02:21;99274.47;;;8.64;90.82
59419;BME280;45224;50.904;6.038;2022-11-28T00:03:52;99272.75;;;8.63;90.29
59419;BME280;45224;50.904;6.038;2022-11-28T00:05:22;99273.59;;;8.62;90.53
59419;BME280;45224;50.904;6.038;2022-11-28T00:06:53;99271.03;;;8.65;90.41
59419;BME280;45224;50.904;6.038;2022-11-28T00:08:23;99272.75;;;8.66;90.02
59419;BME280;45224;50.904;6.038;2022-11-28T00:09:54;99270.19;;;8.66;90.22
59419;BME280;45224;50.904;6.038;2022-11-28T00:11:24;99273.63;;;8.66;90.26
59419;BME280;45224;50.904;6.038;2022-11-28T00:12:55;99270.19;;;8.69;90.25
59419;BME280;45224;50.904;6.038;2022-11-28T00:14:26;99261.56;;;8.71;89.87
59419;BME280;45224;50.904;6.038;2022-11-28T00:16:00;99251.25;;;8.67;90.13
59419;BME280;45224;50.904;6.038;2022-11-28T00:17:31;99258.16;;;8.60;90.75
59419;BME280;45224;50.904;6.038;2022-11-28T00:19:02;99249.56;;;8.61;91.02
59419;BME280;45224;50.904;6.038;2022-11-28T00:20:33;99247.84;;;8.65;90.22
59419;BME280;45224;50.904;6.038;2022-11-28T00:22:04;99247.00;;;8.69;90.00
59419;BME280;45224;50.904;6.038;2022-11-28T00:23:34;99247.84;;;8.69;89.57
59419;BME280;45224;50.904;6.038;2022-11-28T00:25:05;99247.84;;;8.68;89.98
59419;BME280;45224;50.904;6.038;2022-11-28T00:26:38;99241.84;;;8.69;89.76
59419;BME280;45224;50.904;6.038;2022-11-28T00:28:09;99240.09;;;8.69;89.71
59419;BME280;45224;50.904;6.038;2022-11-28T00:29:40;99241.84;;;8.61;90.17
59419;BME280;45224;50.904;6.038;2022-11-28T00:31:15;99243.56;;;8.57;89.85
59419;BME280;45224;50.904;6.038;2022-11-28T00:32:46;99245.25;;;8.52;89.89
59419;BME280;45224;50.904;6.038;2022-11-28T00:34:16;99241.84;;;8.59;89.33
59419;BME280;45224;50.904;6.038;2022-11-28T00:35:47;99246.13;;;8.48;88.99
59419;BME280;45224;50.904;6.038;2022-11-28T00:37:17;99236.69;;;8.50;89.28
59419;BME280;45224;50.904;6.038;2022-11-28T00:38:48;99249.56;;;8.52;89.30
59419;BME280;45224;50.904;6.038;2022-11-28T00:40:19;99247.00;;;8.56;89.16
59419;BME280;45224;50.904;6.038;2022-11-28T00:41:49;99241.00;;;8.54;88.96
59419;BME280;45224;50.904;6.038;2022-11-28T00:43:20;99231.53;;;8.47;89.03
59419;BME280;45224;50.904;6.038;2022-11-28T00:44:50;99228.06;;;8.61;88.99
59419;BME280;45224;50.904;6.038;2022-11-28T00:46:21;99241.84;;;8.53;89.51
59419;BME280;45224;50.904;6.038;2022-11-28T00:47:52;99240.09;;;8.52;89.48
59419;BME280;45224;50.904;6.038;2022-11-28T00:49:22;99241.00;;;8.54;88.48
59419;BME280;45224;50.904;6.038;2022-11-28T00:50:53;99240.09;;;8.49;88.87
59419;BME280;45224;50.904;6.038;2022-11-28T00:52:23;99236.69;;;8.52;88.64
59419;BME280;45224;50.904;6.038;2022-11-28T00:53:56;99238.41;;;8.51;88.19
59419;BME280;45224;50.904;6.038;2022-11-28T00:55:27;99228.94;;;8.59;88.24
59419;BME280;45224;50.904;6.038;2022-11-28T00:56:57;99230.69;;;8.54;87.85
59419;BME280;45224;50.904;6.038;2022-11-28T00:58:27;99229.81;;;8.60;87.53
59419;BME280;45224;50.904;6.038;2022-11-28T00:59:58;99238.41;;;8.51;87.19
59419;BME280;45224;50.904;6.038;2022-11-28T01:01:31;99231.53;;;8.44;87.95
59419;BME280;45224;50.904;6.038;2022-11-28T01:03:01;99241.78;;;8.36;87.57
59419;BME280;45224;50.904;6.038;2022-11-28T01:04:32;99235.84;;;8.45;87.06
59419;BME280;45224;50.904;6.038;2022-11-28T01:06:03;99233.25;;;8.50;87.24
59419;BME280;45224;50.904;6.038;2022-11-28T01:07:34;99224.66;;;8.52;87.50
59419;BME280;45224;50.904;6.038;2022-11-28T01:09:07;99228.06;;;8.39;87.72
59419;BME280;45224;50.904;6.038;2022-11-28T01:10:42;99226.38;;;8.52;87.61
59419;BME280;45224;50.904;6.038;2022-11-28T01:12:13;99229.78;;;8.41;86.89
59419;BME280;45224;50.904;6.038;2022-11-28T01:13:44;99223.75;;;8.41;87.16
59419;BME280;45224;50.904;6.038;2022-11-28T01:15:14;99222.91;;;8.42;87.48
59419;BME280;45224;50.904;6.038;2022-11-28T01:16:45;99222.94;;;8.54;86.95
59419;BME280;45224;50.904;6.038;2022-11-28T01:18:15;99234.09;;;8.50;87.06
59419;BME280;45224;50.904;6.038;2022-11-28T01:19:46;99228.94;;;8.49;87.27
59419;BME280;45224;50.904;6.038;2022-11-28T01:21:17;99231.53;;;8.59;86.68
59419;BME280;45224;50.904;6.038;2022-11-28T01:22:47;99226.38;;;8.55;87.04
59419;BME280;45224;50.904;6.038;2022-11-28T01:24:18;99226.38;;;8.56;86.87
59419;BME280;45224;50.904;6.038;2022-11-28T01:25:48;99223.75;;;8.81;85.98
59419;BME280;45224;50.904;6.038;2022-11-28T01:27:19;99228.06;;;8.79;85.79
59419;BME280;45224;50.904;6.038;2022-11-28T01:28:50;99223.78;;;8.66;86.58
59419;BME280;45224;50.904;6.038;2022-11-28T01:30:20;99229.81;;;8.71;86.33
59419;BME280;45224;50.904;6.038;2022-11-28T01:31:51;99228.06;;;8.73;86.19
59419;BME280;45224;50.904;6.038;2022-11-28T01:33:21;99228.06;;;8.70;86.07
59419;BME280;45224;50.904;6.038;2022-11-28T01:34:52;99234.06;;;8.76;85.98
59419;BME280;45224;50.904;6.038;2022-11-28T01:36:22;99235.81;;;8.67;86.42
59419;BME280;45224;50.904;6.038;2022-11-28T01:37:53;99228.94;;;8.69;86.70
59419;BME280;45224;50.904;6.038;2022-11-28T01:39:23;99235.81;;;8.62;86.86
59419;BME280;45224;50.904;6.038;2022-11-28T01:40:55;99231.53;;;8.69;86.44
59419;BME280;45224;50.904;6.038;2022-11-28T01:42:25;99233.22;;;8.73;86.46
59419;BME280;45224;50.904;6.038;2022-11-28T01:44:56;99236.66;;;8.75;86.79
59419;BME280;45224;50.904;6.038;2022-11-28T01:45:56;99242.69;;;8.58;87.94
59419;BME280;45224;50.904;6.038;2022-11-28T01:47:28;99246.13;;;8.61;88.14
59419;BME280;45224;50.904;6.038;2022-11-28T01:49:11;99216.91;;;8.52;88.33
59419;BME280;45224;50.904;6.038;2022-11-28T01:50:43;99216.06;;;8.50;88.29
59419;BME280;45224;50.904;6.038;2022-11-28T01:52:17;99222.94;;;8.54;88.66
59419;BME280;45224;50.904;6.038;2022-11-28T01:53:49;99214.34;;;8.55;89.00
59419;BME280;45224;50.904;6.038;2022-11-28T01:55:23;99213.50;;;8.47;88.98
59419;BME280;45224;50.904;6.038;2022-11-28T01:56:58;99207.50;;;8.48;88.96
59419;BME280;45224;50.904;6.038;2022-11-28T01:58:31;99216.91;;;8.51;89.09
59419;BME280;45224;50.904;6.038;2022-11-28T02:00:15;99224.69;;;8.46;89.12
59419;BME280;45224;50.904;6.038;2022-11-28T02:01:46;99206.66;;;8.43;88.83
59419;BME280;45224;50.904;6.038;2022-11-28T02:03:21;99208.34;;;8.47;88.89
59419;BME280;45224;50.904;6.038;2022-11-28T02:04:54;99210.91;;;8.53;88.64
59419;BME280;45224;50.904;6.038;2022-11-28T02:06:24;99212.59;;;8.36;89.54
59419;BME280;45224;50.904;6.038;2022-11-28T02:07:55;99210.06;;;8.44;88.85
59419;BME280;45224;50.904;6.038;2022-11-28T02:09:26;99214.34;;;8.48;88.92
59419;BME280;45224;50.904;6.038;2022-11-28T02:11:09;99216.06;;;8.50;88.58
59419;BME280;45224;50.904;6.038;2022-11-28T02:22:06;99214.34;;;8.55;87.78
59419;BME280;45224;50.904;6.038;2022-11-28T02:34:12;99215.22;;;8.54;87.16
59419;BME280;45224;50.904;6.038;2022-11-28T02:37:42;99215.22;;;8.51;87.67
59419;BME280;45224;50.904;6.038;2022-11-28T02:39:36;99220.38;;;8.54;87.81
59419;BME280;45224;50.904;6.038;2022-11-28T02:41:28;99218.66;;;8.52;88.06
59419;BME280;45224;50.904;6.038;2022-11-28T02:43:28;99221.22;;;8.53;88.25
59419;BME280;45224;50.904;6.038;2022-11-28T02:45:10;99222.06;;;8.41;88.75
59419;BME280;45224;50.904;6.038;2022-11-28T02:48:26;99222.91;;;8.39;88.81
59419;BME280;45224;50.904;6.038;2022-11-28T02:51:38;99214.34;;;8.40;88.76
59419;BME280;45224;50.904;6.038;2022-11-28T02:53:14;99210.91;;;8.47;88.56
59419;BME280;45224;50.904;6.038;2022-11-28T02:54:48;99216.91;;;8.35;89.72
59419;BME280;45224;50.904;6.038;2022-11-28T02:56:23;99220.34;;;8.36;89.68
59419;BME280;45224;50.904;6.038;2022-11-28T02:57:53;99220.34;;;8.36;89.15
59419;BME280;45224;50.904;6.038;2022-11-28T03:01:16;99213.47;;;8.32;89.47
59419;BME280;45224;50.904;6.038;2022-11-28T03:04:59;99207.47;;;8.34;89.72
59419;BME280;45224;50.904;6.038;2022-11-28T03:06:47;99210.03;;;8.30;90.08
59419;BME280;45224;50.904;6.038;2022-11-28T03:13:52;99205.75;;;8.22;90.83
59419;BME280;45224;50.904;6.038;2022-11-28T03:15:59;99199.72;;;8.30;90.20
59419;BME280;45224;50.904;6.038;2022-11-28T03:18:13;99186.88;;;8.20;90.26
59419;BME280;45224;50.904;6.038;2022-11-28T03:20:05;99185.13;;;8.13;91.21
59419;BME280;45224;50.904;6.038;2022-11-28T03:23:22;99198.00;;;8.12;91.61
59419;BME280;45224;50.904;6.038;2022-11-28T03:24:56;99198.88;;;7.98;91.48
59419;BME280;45224;50.904;6.038;2022-11-28T03:27:24;99199.72;;;8.05;91.16
59419;BME280;45224;50.904;6.038;2022-11-28T03:28:53;99201.44;;;8.00;91.95
59419;BME280;45224;50.904;6.038;2022-11-28T03:30:36;99198.88;;;8.00;91.16
59419;BME280;45224;50.904;6.038;2022-11-28T03:32:12;99203.16;;;8.02;91.06
59419;BME280;45224;50.904;6.038;2022-11-28T03:33:50;99195.44;;;8.02;90.97
59419;BME280;45224;50.904;6.038;2022-11-28T03:35:28;99194.59;;;8.08;90.48
59419;BME280;45224;50.904;6.038;2022-11-28T03:37:02;99189.44;;;8.07;90.74
59419;BME280;45224;50.904;6.038;2022-11-28T03:38:38;99189.44;;;8.08;89.99
59419;BME280;45224;50.904;6.038;2022-11-28T03:40:14;99192.84;;;8.05;90.43
59419;BME280;45224;50.904;6.038;2022-11-28T03:41:51;99185.13;;;8.07;90.40
59419;BME280;45224;50.904;6.038;2022-11-28T03:43:33;99197.16;;;8.02;90.82
59419;BME280;45224;50.904;6.038;2022-11-28T03:45:16;99206.59;;;8.03;90.41
59419;BME280;45224;50.904;6.038;2022-11-28T03:46:49;99198.88;;;8.03;90.33
59419;BME280;45224;50.904;6.038;2022-11-28T03:48:29;99196.28;;;8.00;90.36
59419;BME280;45224;50.904;6.038;2022-11-28T03:50:04;99194.56;;;7.99;90.80
59419;BME280;45224;50.904;6.038;2022-11-28T03:51:54;99195.44;;;7.92;90.48
59419;BME280;45224;50.904;6.038;2022-11-28T03:53:30;99193.69;;;7.84;91.09
59419;BME280;45224;50.904;6.038;2022-11-28T03:55:18;99192.84;;;7.85;91.00
59419;BME280;45224;50.904;6.038;2022-11-28T03:56:56;99189.41;;;7.80;91.67
59419;BME280;45224;50.904;6.038;2022-11-28T03:58:33;99186.84;;;7.86;90.87
59419;BME280;45224;50.904;6.038;2022-11-28T04:00:07;99174.81;;;7.84;91.41
59419;BME280;45224;50.904;6.038;2022-11-28T04:01:52;99178.25;;;7.75;91.08
59419;BME280;45224;50.904;6.038;2022-11-28T04:03:25;99181.66;;;7.68;91.84
59419;BME280;45224;50.904;6.038;2022-11-28T04:08:57;99186.81;;;7.73;90.28
59419;BME280;45224;50.904;6.038;2022-11-28T04:10:37;99181.69;;;7.77;90.67
59419;BME280;45224;50.904;6.038;2022-11-28T04:14:21;99187.66;;;7.73;91.58
59419;BME280;45224;50.904;6.038;2022-11-28T04:19:50;99196.28;;;7.77;90.97
59419;BME280;45224;50.904;6.038;2022-11-28T04:21:30;99192.81;;;7.75;91.73
59419;BME280;45224;50.904;6.038;2022-11-28T04:23:10;99187.69;;;7.79;90.94
59419;BME280;45224;50.904;6.038;2022-11-28T04:24:52;99183.38;;;7.78;91.67
59419;BME280;45224;50.904;6.038;2022-11-28T04:26:32;99197.94;;;7.68;91.35
59419;BME280;45224;50.904;6.038;2022-11-28T04:28:06;99194.53;;;7.74;91.69
59419;BME280;45224;50.904;6.038;2022-11-28T04:29:43;99192.81;;;7.73;91.57
59419;BME280;45224;50.904;6.038;2022-11-28T04:31:16;99196.28;;;7.77;90.78
59419;BME280;45224;50.904;6.038;2022-11-28T04:32:51;99187.69;;;7.78;90.93
59419;BME280;45224;50.904;6.038;2022-11-28T04:34:25;99190.25;;;7.64;91.88
59419;BME280;45224;50.904;6.038;2022-11-28T04:35:59;99197.94;;;7.67;91.63
59419;BME280;45224;50.904;6.038;2022-11-28T04:37:31;99190.22;;;7.61;91.65
59419;BME280;45224;50.904;6.038;2022-11-28T04:39:08;99188.50;;;7.57;91.33
59419;BME280;45224;50.904;6.038;2022-11-28T04:40:49;99191.91;;;7.56;91.59
59419;BME280;45224;50.904;6.038;2022-11-28T04:42:30;99185.91;;;7.52;91.52
59419;BME280;45224;50.904;6.038;2022-11-28T04:44:08;99197.06;;;7.62;91.12
59419;BME280;45224;50.904;6.038;2022-11-28T04:45:55;99197.06;;;7.59;90.92
59419;BME280;45224;50.904;6.038;2022-11-28T04:47:28;99198.78;;;7.60;90.92
59419;BME280;45224;50.904;6.038;2022-11-28T04:48:59;99190.19;;;7.52;90.82
59419;BME280;45224;50.904;6.038;2022-11-28T04:50:41;99203.94;;;7.57;90.92
59419;BME280;45224;50.904;6.038;2022-11-28T04:54:08;99192.78;;;7.55;90.08
59419;BME280;45224;50.904;6.038;2022-11-28T04:55:51;99198.78;;;7.57;90.28
59419;BME280;45224;50.904;6.038;2022-11-28T04:57:39;99196.22;;;7.58;90.34
59419;BME280;45224;50.904;6.038;2022-11-28T04:59:12;99205.69;;;7.64;89.86
59419;BME280;45224;50.904;6.038;2022-11-28T05:00:44;99201.38;;;7.66;90.07
59419;BME280;45224;50.904;6.038;2022-11-28T05:02:16;99200.53;;;7.61;90.36
59419;BME280;45224;50.904;6.038;2022-11-28T05:03:48;99209.94;;;7.53;90.57
59419;BME280;45224;50.904;6.038;2022-11-28T05:05:21;99210.78;;;7.52;90.09
59419;BME280;45224;50.904;6.038;2022-11-28T05:07:00;99195.34;;;7.52;90.55
59419;BME280;45224;50.904;6.038;2022-11-28T05:08:31;99199.63;;;7.48;90.40
59419;BME280;45224;50.904;6.038;2022-11-28T05:10:02;99201.34;;;7.52;90.70
59419;BME280;45224;50.904;6.038;2022-11-28T05:11:32;99200.50;;;7.52;89.25
59419;BME280;45224;50.904;6.038;2022-11-28T05:13:03;99200.53;;;7.64;88.42
59419;BME280;45224;50.904;6.038;2022-11-28T05:14:34;99196.19;;;7.52;89.41
59419;BME280;45224;50.904;6.038;2022-11-28T05:16:05;99200.47;;;7.48;89.62
59419;BME280;45224;50.904;6.038;2022-11-28T05:17:36;99196.19;;;7.52;89.66
59419;BME280;45224;50.904;6.038;2022-11-28T05:19:07;99201.34;;;7.57;88.81
59419;BME280;45224;50.904;6.038;2022-11-28T05:20:38;99194.50;;;7.57;89.21
59419;BME280;45224;50.904;6.038;2022-11-28T05:22:09;99186.75;;;7.46;88.84
59419;BME280;45224;50.904;6.038;2022-11-28T05:23:42;99193.63;;;7.54;88.79
59419;BME280;45224;50.904;6.038;2022-11-28T05:25:13;99192.78;;;7.50;89.01
59419;BME280;45224;50.904;6.038;2022-11-28T05:26:44;99185.03;;;7.45;89.29
59419;BME280;45224;50.904;6.038;2022-11-28T05:28:14;99186.78;;;7.53;89.10
59419;BME280;45224;50.904;6.038;2022-11-28T05:29:45;99191.06;;;7.60;88.91
59419;BME280;45224;50.904;6.038;2022-11-28T05:31:19;99190.19;;;7.52;89.41
59419;BME280;45224;50.904;6.038;2022-11-28T05:32:50;99191.06;;;7.43;89.19
59419;BME280;45224;50.904;6.038;2022-11-28T05:34:21;99190.19;;;7.48;88.80
59419;BME280;45224;50.904;6.038;2022-11-28T05:35:51;99191.91;;;7.49;88.73
59419;BME280;45224;50.904;6.038;2022-11-28T05:37:22;99193.63;;;7.57;88.74
59419;BME280;45224;50.904;6.038;2022-11-28T05:38:52;99188.47;;;7.54;88.69
59419;BME280;45224;50.904;6.038;2022-11-28T05:40:23;99193.63;;;7.54;88.43
59419;BME280;45224;50.904;6.038;2022-11-28T05:41:54;99197.94;;;7.56;88.43
59419;BME280;45224;50.904;6.038;2022-11-28T05:43:25;99195.38;;;7.62;87.91
59419;BME280;45224;50.904;6.038;2022-11-28T05:44:55;99182.50;;;7.52;88.51
59419;BME280;45224;50.904;6.038;2022-11-28T05:46:27;99191.09;;;7.69;87.68
59419;BME280;45224;50.904;6.038;2022-11-28T05:47:57;99187.66;;;7.67;87.93
59419;BME280;45224;50.904;6.038;2022-11-28T05:49:28;99192.81;;;7.62;87.65
59419;BME280;45224;50.904;6.038;2022-11-28T05:50:58;99185.09;;;7.64;87.75
59419;BME280;45224;50.904;6.038;2022-11-28T05:52:29;99182.53;;;7.65;87.27
59419;BME280;45224;50.904;6.038;2022-11-28T05:54:01;99169.66;;;7.61;87.55
59419;BME280;45224;50.904;6.038;2022-11-28T05:55:32;99183.38;;;7.60;87.68
59419;BME280;45224;50.904;6.038;2022-11-28T05:57:02;99175.66;;;7.64;87.76
59419;BME280;45224;50.904;6.038;2022-11-28T05:58:36;99180.78;;;7.57;88.10
59419;BME280;45224;50.904;6.038;2022-11-28T06:00:07;99185.94;;;7.61;88.30
59419;BME280;45224;50.904;6.038;2022-11-28T06:01:42;99191.94;;;7.68;88.51
59419;BME280;45224;50.904;6.038;2022-11-28T06:03:12;99188.53;;;7.66;88.17
59419;BME280;45224;50.904;6.038;2022-11-28T06:04:43;99197.94;;;7.58;88.58
59419;BME280;45224;50.904;6.038;2022-11-28T06:06:17;99197.09;;;7.65;88.24
59419;BME280;45224;50.904;6.038;2022-11-28T06:07:48;99190.22;;;7.67;87.85
59419;BME280;45224;50.904;6.038;2022-11-28T06:09:19;99191.09;;;7.66;88.06
59419;BME280;45224;50.904;6.038;2022-11-28T06:10:55;99201.38;;;7.66;87.77
59419;BME280;45224;50.904;6.038;2022-11-28T06:12:27;99197.09;;;7.68;88.22
59419;BME280;45224;50.904;6.038;2022-11-28T06:13:57;99202.22;;;7.65;88.02
59419;BME280;45224;50.904;6.038;2022-11-28T06:15:30;99197.97;;;7.62;88.23
59419;BME280;45224;50.904;6.038;2022-11-28T06:17:00;99202.22;;;7.65;88.46
59419;BME280;45224;50.904;6.038;2022-11-28T06:18:31;99197.97;;;7.64;88.26
59419;BME280;45224;50.904;6.038;2022-11-28T06:20:01;99194.53;;;7.66;88.19
59419;BME280;45224;50.904;6.038;2022-11-28T06:21:32;99200.53;;;7.73;87.96
59419;BME280;45224;50.904;6.038;2022-11-28T06:23:02;99206.53;;;7.69;88.28
59419;BME280;45224;50.904;6.038;2022-11-28T06:24:33;99204.81;;;7.71;88.40
59419;BME280;45224;50.904;6.038;2022-11-28T06:26:08;99200.50;;;7.67;88.53
59419;BME280;45224;50.904;6.038;2022-11-28T06:27:39;99203.97;;;7.69;88.07
59419;BME280;45224;50.904;6.038;2022-11-28T06:29:09;99202.28;;;7.77;87.96
59419;BME280;45224;50.904;6.038;2022-11-28T06:30:42;99209.13;;;7.81;88.32
59419;BME280;45224;50.904;6.038;2022-11-28T06:32:13;99206.56;;;7.75;87.98
59419;BME280;45224;50.904;6.038;2022-11-28T06:33:44;99212.56;;;7.77;88.02
59419;BME280;45224;50.904;6.038;2022-11-28T06:35:14;99204.84;;;7.76;87.97
59419;BME280;45224;50.904;6.038;2022-11-28T06:36:45;99197.97;;;7.75;87.57
59419;BME280;45224;50.904;6.038;2022-11-28T06:38:15;99205.69;;;7.73;88.03
59419;BME280;45224;50.904;6.038;2022-11-28T06:39:46;99201.41;;;7.77;87.94
59419;BME280;45224;50.904;6.038;2022-11-28T06:41:18;99201.41;;;7.77;87.97
59419;BME280;45224;50.904;6.038;2022-11-28T06:42:48;99204.00;;;7.75;88.50
59419;BME280;45224;50.904;6.038;2022-11-28T06:44:20;99204.84;;;7.79;88.63
59419;BME280;45224;50.904;6.038;2022-11-28T06:45:51;99202.28;;;7.80;88.30
59419;BME280;45224;50.904;6.038;2022-11-28T06:47:21;99193.69;;;7.81;88.47
59419;BME280;45224;50.904;6.038;2022-11-28T06:48:52;99194.56;;;7.83;88.52
59419;BME280;45224;50.904;6.038;2022-11-28T06:50:22;99206.56;;;7.81;88.39
59419;BME280;45224;50.904;6.038;2022-11-28T06:51:53;99203.97;;;7.81;88.23
59419;BME280;45224;50.904;6.038;2022-11-28T06:53:23;99200.56;;;7.79;88.26
59419;BME280;45224;50.904;6.038;2022-11-28T06:54:53;99197.97;;;7.81;87.82
59419;BME280;45224;50.904;6.038;2022-11-28T06:56:24;99204.88;;;7.83;88.05
59419;BME280;45224;50.904;6.038;2022-11-28T06:57:54;99199.69;;;7.77;88.33
59419;BME280;45224;50.904;6.038;2022-11-28T06:59:25;99203.13;;;7.85;87.92
59419;BME280;45224;50.904;6.038;2022-11-28T07:00:55;99205.69;;;7.79;88.59
59419;BME280;45224;50.904;6.038;2022-11-28T07:02:26;99207.41;;;7.74;88.96
59419;BME280;45224;50.904;6.038;2022-11-28T07:03:56;99205.69;;;7.75;89.07
59419;BME280;45224;50.904;6.038;2022-11-28T07:05:27;99201.41;;;7.71;89.15
59419;BME280;45224;50.904;6.038;2022-11-28T07:06:57;99214.28;;;7.75;89.13
59419;BME280;45224;50.904;6.038;2022-11-28T07:08:29;99210.00;;;7.77;89.27
59419;BME280;45224;50.904;6.038;2022-11-28T07:10:00;99203.97;;;7.81;89.54
59419;BME280;45224;50.904;6.038;2022-11-28T07:11:31;99205.69;;;7.79;89.29
59419;BME280;45224;50.904;6.038;2022-11-28T07:13:02;99212.59;;;7.83;89.20
59419;BME280;45224;50.904;6.038;2022-11-28T07:14:33;99206.56;;;7.88;89.13
59419;BME280;45224;50.904;6.038;2022-11-28T07:16:04;99207.41;;;7.71;89.68
59419;BME280;45224;50.904;6.038;2022-11-28T07:17:34;99203.13;;;7.65;90.99
59419;BME280;45224;50.904;6.038;2022-11-28T07:19:05;99207.38;;;7.68;90.71
59419;BME280;45224;50.904;6.038;2022-11-28T07:20:35;99213.41;;;7.65;91.01
59419;BME280;45224;50.904;6.038;2022-11-28T07:22:06;99221.94;;;7.55;91.45
59419;BME280;45224;50.904;6.038;2022-11-28T07:23:36;99221.94;;;7.55;92.30
59419;BME280;45224;50.904;6.038;2022-11-28T07:25:07;99214.22;;;7.54;92.10
59419;BME280;45224;50.904;6.038;2022-11-28T07:26:37;99220.25;;;7.63;92.25
59419;BME280;45224;50.904;6.038;2022-11-28T07:28:08;99217.66;;;7.65;92.14
59419;BME280;45224;50.904;6.038;2022-11-28T07:29:38;99221.97;;;7.66;91.90
59419;BME280;45224;50.904;6.038;2022-11-28T07:31:11;99217.66;;;7.60;92.49
59419;BME280;45224;50.904;6.038;2022-11-28T07:32:42;99215.09;;;7.65;92.25
59419;BME280;45224;50.904;6.038;2022-11-28T07:34:13;99220.25;;;7.65;92.56
59419;BME280;45224;50.904;6.038;2022-11-28T07:35:43;99219.41;;;7.66;92.66
59419;BME280;45224;50.904;6.038;2022-11-28T07:37:14;99223.66;;;7.67;92.38
59419;BME280;45224;50.904;6.038;2022-11-28T07:38:46;99223.69;;;7.73;92.14
59419;BME280;45224;50.904;6.038;2022-11-28T07:40:17;99228.00;;;7.77;91.59
59419;BME280;45224;50.904;6.038;2022-11-28T07:41:49;99218.56;;;7.76;91.59
59419;BME280;45224;50.904;6.038;2022-11-28T07:43:19;99223.72;;;7.82;91.45
59419;BME280;45224;50.904;6.038;2022-11-28T07:44:50;99230.56;;;7.77;92.42
59419;BME280;45224;50.904;6.038;2022-11-28T07:46:20;99232.31;;;7.75;92.46
59419;BME280;45224;50.904;6.038;2022-11-28T07:47:51;99228.84;;;7.78;92.33
59419;BME280;45224;50.904;6.038;2022-11-28T07:49:21;99229.69;;;7.78;92.50
59419;BME280;45224;50.904;6.038;2022-11-28T07:50:52;99235.72;;;7.79;93.36
59419;BME280;45224;50.904;6.038;2022-11-28T07:52:22;99236.59;;;7.79;93.22
59419;BME280;45224;50.904;6.038;2022-11-28T07:53:53;99229.69;;;7.78;93.23
59419;BME280;45224;50.904;6.038;2022-11-28T07:55:23;99243.44;;;7.77;93.53
59419;BME280;45224;50.904;6.038;2022-11-28T07:56:54;99238.31;;;7.80;93.29
59419;BME280;45224;50.904;6.038;2022-11-28T07:58:24;99238.31;;;7.82;93.33
59419;BME280;45224;50.904;6.038;2022-11-28T07:59:55;99240.03;;;7.75;93.46
59419;BME280;45224;50.904;6.038;2022-11-28T08:01:27;99234.00;;;7.79;93.11
59419;BME280;45224;50.904;6.038;2022-11-28T08:02:58;99242.56;;;7.78;93.38
59419;BME280;45224;50.904;6.038;2022-11-28T08:04:29;99240.00;;;7.81;93.30
59419;BME280;45224;50.904;6.038;2022-11-28T08:06:00;99246.91;;;7.89;92.89
59419;BME280;45224;50.904;6.038;2022-11-28T08:07:31;99246.91;;;7.85;93.36
59419;BME280;45224;50.904;6.038;2022-11-28T08:09:01;99250.31;;;7.84;93.11
59419;BME280;45224;50.904;6.038;2022-11-28T08:10:32;99248.63;;;7.88;93.05
59419;BME280;45224;50.904;6.038;2022-11-28T08:12:02;99252.06;;;7.89;93.54
59419;BME280;45224;50.904;6.038;2022-11-28T08:13:33;99254.63;;;7.87;93.95
59419;BME280;45224;50.904;6.038;2022-11-28T08:15:04;99248.63;;;7.90;94.11
59419;BME280;45224;50.904;6.038;2022-11-28T08:16:35;99255.47;;;7.88;94.43
59419;BME280;45224;50.904;6.038;2022-11-28T08:18:06;99248.63;;;7.90;94.37
59419;BME280;45224;50.904;6.038;2022-11-28T08:19:37;99244.34;;;7.90;94.23
59419;BME280;45224;50.904;6.038;2022-11-28T08:21:16;99252.03;;;7.82;95.56
59419;BME280;45224;50.904;6.038;2022-11-28T08:22:47;99258.91;;;7.83;95.66
59419;BME280;45224;50.904;6.038;2022-11-28T08:24:18;99257.16;;;7.79;96.28
59419;BME280;45224;50.904;6.038;2022-11-28T08:25:48;99255.44;;;7.81;96.24
59419;BME280;45224;50.904;6.038;2022-11-28T08:27:19;99252.88;;;7.75;96.98
59419;BME280;45224;50.904;6.038;2022-11-28T08:28:50;99251.16;;;7.79;97.23
59419;BME280;45224;50.904;6.038;2022-11-28T08:30:22;99253.75;;;7.77;97.40
59419;BME280;45224;50.904;6.038;2022-11-28T08:31:53;99257.16;;;7.76;97.34
59419;BME280;45224;50.904;6.038;2022-11-28T08:33:24;99248.56;;;7.71;98.04
59419;BME280;45224;50.904;6.038;2022-11-28T08:34:54;99261.44;;;7.71;98.10
59419;BME280;45224;50.904;6.038;2022-11-28T08:36:24;99254.56;;;7.68;98.78
59419;BME280;45224;50.904;6.038;2022-11-28T08:37:55;99255.38;;;7.57;99.42
59419;BME280;45224;50.904;6.038;2022-11-28T08:39:26;99256.28;;;7.66;99.43
59419;BME280;45224;50.904;6.038;2022-11-28T08:41:04;99254.56;;;7.61;100.00
59419;BME280;45224;50.904;6.038;2022-11-28T08:42:35;99262.28;;;7.65;99.84
59419;BME280;45224;50.904;6.038;2022-11-28T08:44:06;99258.84;;;7.68;99.69
59419;BME280;45224;50.904;6.038;2022-11-28T08:45:37;99255.41;;;7.60;100.00
59419;BME280;45224;50.904;6.038;2022-11-28T08:47:07;99265.72;;;7.66;100.00
59419;BME280;45224;50.904;6.038;2022-11-28T08:48:38;99259.72;;;7.64;100.00
59419;BME280;45224;50.904;6.038;2022-11-28T08:50:09;99268.28;;;7.67;100.00
59419;BME280;45224;50.904;6.038;2022-11-28T08:51:39;99264.84;;;7.67;100.00
59419;BME280;45224;50.904;6.038;2022-11-28T08:53:10;99259.72;;;7.65;100.00
59419;BME280;45224;50.904;6.038;2022-11-28T08:54:40;99258.00;;;7.64;100.00
59419;BME280;45224;50.904;6.038;2022-11-28T08:56:11;99262.25;;;7.67;100.00
59419;BME280;45224;50.904;6.038;2022-11-28T08:57:42;99267.44;;;7.64;100.00
59419;BME280;45224;50.904;6.038;2022-11-28T08:59:12;99268.28;;;7.69;100.00
59419;BME280;45224;50.904;6.038;2022-11-28T09:00:43;99263.16;;;7.71;100.00
59419;BME280;45224;50.904;6.038;2022-11-28T09:02:13;99264.00;;;7.68;100.00
59419;BME280;45224;50.904;6.038;2022-11-28T09:03:44;99259.72;;;7.70;100.00
59419;BME280;45224;50.904;6.038;2022-11-28T09:05:14;99258.84;;;7.65;100.00
59419;BME280;45224;50.904;6.038;2022-11-28T09:06:45;99276.00;;;7.63;100.00
59419;BME280;45224;50.904;6.038;2022-11-28T09:08:17;99258.84;;;7.63;100.00